createdAt,value
2022-09-06T00:02:21.646Z,85.30
2022-09-06T00:04:50.139Z,84.72
2022-09-06T00:07:18.250Z,84.58
2022-09-06T00:09:46.065Z,84.97
2022-09-06T00:12:15.333Z,84.96
2022-09-06T00:14:43.158Z,85.37
2022-09-06T00:17:11.346Z,85.97
2022-09-06T00:19:39.346Z,85.52
2022-09-06T00:22:07.320Z,85.46
2022-09-06T00:24:37.132Z,85.08
2022-09-06T00:27:05.245Z,85.39
2022-09-06T00:29:35.508Z,85.31
2022-09-06T00:32:03.947Z,85.82
2022-09-06T00:34:32.113Z,85.69
2022-09-06T00:37:00.038Z,85.90
2022-09-06T00:39:28.034Z,86.12
2022-09-06T00:41:55.950Z,86.09
2022-09-06T00:44:24.399Z,86.50
2022-09-06T00:46:55.516Z,86.72
2022-09-06T00:49:27.127Z,87.70
2022-09-06T00:52:00.240Z,87.27
2022-09-06T00:54:28.894Z,87.16
2022-09-06T00:56:58.570Z,87.10
2022-09-06T00:59:27.246Z,87.29
2022-09-06T01:01:56.654Z,87.42
2022-09-06T01:04:24.765Z,87.49
2022-09-06T01:07:02.521Z,87.95
2022-09-06T01:09:45.340Z,88.12
2022-09-06T01:12:27.270Z,88.62
2022-09-06T01:15:10.356Z,88.70
2022-09-06T01:17:55.726Z,88.22
2022-09-06T01:20:54.022Z,88.35
2022-09-06T01:23:54.851Z,88.34
2022-09-06T01:26:54.113Z,88.96
2022-09-06T01:29:30.823Z,88.79
2022-09-06T01:32:04.704Z,89.53
2022-09-06T01:34:38.701Z,89.48
2022-09-06T01:37:11.214Z,89.55
2022-09-06T01:39:40.865Z,90.28
2022-09-06T01:42:12.568Z,90.09
2022-09-06T01:44:45.446Z,90.90
2022-09-06T01:47:23.089Z,90.54
2022-09-06T01:50:21.686Z,90.52
2022-09-06T01:53:00.162Z,90.81
2022-09-06T01:55:32.777Z,90.38
2022-09-06T01:58:25.425Z,91.40
2022-09-06T02:00:59.853Z,91.65
2022-09-06T02:03:33.835Z,92.72
2022-09-06T02:06:08.291Z,91.77
2022-09-06T02:08:40.434Z,91.18
2022-09-06T02:11:10.366Z,90.90
2022-09-06T02:13:40.934Z,91.74
2022-09-06T02:16:11.466Z,90.54
2022-09-06T02:18:43.745Z,90.45
2022-09-06T02:21:15.411Z,90.86
2022-09-06T02:23:45.358Z,90.81
2022-09-06T02:26:18.459Z,91.14
2022-09-06T02:28:46.645Z,91.04
2022-09-06T02:31:20.924Z,90.77
2022-09-06T02:33:50.312Z,91.39
2022-09-06T02:36:19.019Z,91.32
2022-09-06T02:38:47.666Z,91.30
2022-09-06T02:41:18.418Z,91.54
2022-09-06T02:43:46.704Z,91.73
2022-09-06T02:46:16.762Z,91.86
2022-09-06T02:48:44.602Z,92.07
2022-09-06T02:51:12.666Z,92.69
2022-09-06T02:53:40.488Z,92.78
2022-09-06T02:56:08.520Z,92.11
2022-09-06T02:58:36.807Z,92.46
2022-09-06T03:01:05.135Z,92.93
2022-09-06T03:03:34.320Z,92.55
2022-09-06T03:06:02.176Z,93.18
2022-09-06T03:08:33.581Z,92.88
2022-09-06T03:11:02.075Z,92.39
2022-09-06T03:13:30.264Z,92.26
2022-09-06T03:16:00.093Z,91.91
2022-09-06T03:18:29.830Z,93.51
2022-09-06T03:20:59.772Z,93.01
2022-09-06T03:23:29.229Z,92.10
2022-09-06T03:25:57.545Z,92.56
2022-09-06T03:28:25.521Z,92.29
2022-09-06T03:30:53.807Z,92.00
2022-09-06T03:33:21.913Z,91.64
2022-09-06T03:35:51.644Z,91.30
2022-09-06T03:38:21.567Z,91.66
2022-09-06T03:40:50.119Z,91.76
2022-09-06T03:43:18.634Z,91.89
2022-09-06T03:45:47.866Z,91.32
2022-09-06T03:48:16.708Z,92.13
2022-09-06T03:50:46.532Z,93.04
2022-09-06T03:53:15.064Z,96.77
2022-09-06T03:55:47.053Z,95.74
2022-09-06T03:58:15.871Z,94.29
2022-09-06T04:00:43.737Z,91.99
2022-09-06T04:03:11.969Z,91.46
2022-09-06T04:05:39.821Z,89.42
2022-09-06T04:08:08.022Z,90.31
2022-09-06T04:10:35.864Z,90.06
2022-09-06T04:13:05.007Z,88.61
2022-09-06T04:15:32.832Z,89.05
2022-09-06T04:18:00.630Z,88.99
2022-09-06T04:20:28.478Z,87.97
2022-09-06T04:22:56.258Z,89.05
2022-09-06T04:25:24.039Z,87.99
2022-09-06T04:27:52.075Z,88.14
2022-09-06T04:30:21.314Z,90.22
2022-09-06T04:32:49.123Z,90.30
2022-09-06T04:35:16.990Z,88.82
2022-09-06T04:37:44.795Z,88.81
2022-09-06T04:40:13.402Z,87.83
2022-09-06T04:42:41.177Z,87.77
2022-09-06T04:45:10.387Z,87.73
2022-09-06T04:47:39.523Z,89.95
2022-09-06T04:50:08.318Z,88.95
2022-09-06T04:52:36.187Z,89.20
2022-09-06T04:55:04.082Z,88.86
2022-09-06T04:57:31.884Z,88.89
2022-09-06T04:59:59.716Z,90.46
2022-09-06T05:02:27.604Z,91.13
2022-09-06T05:04:57.146Z,91.01
2022-09-06T05:07:24.982Z,90.94
2022-09-06T05:09:52.838Z,91.25
2022-09-06T05:12:20.605Z,92.83
2022-09-06T05:14:48.417Z,92.50
2022-09-06T05:17:16.249Z,92.14
2022-09-06T05:19:44.240Z,92.08
2022-09-06T05:22:13.379Z,91.08
2022-09-06T05:24:41.218Z,91.49
2022-09-06T05:27:09.429Z,91.03
2022-09-06T05:29:37.260Z,89.76
2022-09-06T05:32:05.406Z,89.49
2022-09-06T05:34:33.307Z,88.93
2022-09-06T05:37:01.266Z,89.35
2022-09-06T05:39:30.498Z,89.42
2022-09-06T05:41:58.838Z,90.21
2022-09-06T05:44:26.629Z,89.56
2022-09-06T05:46:54.404Z,88.58
2022-09-06T05:49:22.225Z,87.21
2022-09-06T05:51:52.489Z,86.96
2022-09-06T05:54:20.336Z,86.72
2022-09-06T05:56:49.799Z,85.64
2022-09-06T05:59:17.648Z,86.11
2022-09-06T06:01:49.811Z,85.65
2022-09-06T06:04:19.474Z,86.22
2022-09-06T06:06:49.000Z,87.40
2022-09-06T06:09:17.596Z,87.56
2022-09-06T06:11:45.557Z,86.99
2022-09-06T06:14:14.631Z,86.41
2022-09-06T06:16:42.457Z,87.06
2022-09-06T06:19:10.359Z,87.38
2022-09-06T06:21:39.105Z,88.13
2022-09-06T06:24:07.574Z,87.84
2022-09-06T06:26:37.097Z,87.43
2022-09-06T06:29:08.168Z,88.44
2022-09-06T06:31:39.052Z,88.66
2022-09-06T06:34:07.318Z,88.73
2022-09-06T06:36:36.570Z,89.34
2022-09-06T06:39:06.658Z,88.85
2022-09-06T06:41:34.515Z,88.57
2022-09-06T06:44:04.053Z,87.71
2022-09-06T06:46:34.094Z,87.35
2022-09-06T06:49:03.246Z,86.30
2022-09-06T06:51:33.188Z,84.65
2022-09-06T06:54:00.944Z,83.36
2022-09-06T06:56:30.634Z,82.83
2022-09-06T06:59:00.463Z,82.07
2022-09-06T07:01:30.421Z,81.99
2022-09-06T07:03:58.604Z,81.58
2022-09-06T07:09:18.124Z,81.64
2022-09-06T07:11:46.269Z,81.06
2022-09-06T07:14:14.077Z,80.71
2022-09-06T07:16:42.044Z,79.39
2022-09-06T07:22:02.900Z,78.08
2022-09-06T07:24:33.122Z,77.47
2022-09-06T07:29:48.700Z,75.22
2022-09-06T07:32:16.553Z,74.04
2022-09-06T07:34:44.409Z,74.81
2022-09-06T07:37:13.612Z,75.50
2022-09-06T07:39:41.678Z,75.69
2022-09-06T07:42:10.112Z,76.19
2022-09-06T07:44:37.956Z,74.38
2022-09-06T07:55:31.234Z,71.90
2022-09-06T07:57:59.061Z,72.10
2022-09-06T08:00:27.256Z,70.64
2022-09-06T08:02:55.106Z,69.53
2022-09-06T08:11:00.261Z,66.89
2022-09-06T08:13:28.341Z,65.29
2022-09-06T08:15:59.419Z,66.13
2022-09-06T08:18:27.452Z,65.49
2022-09-06T08:20:55.423Z,64.69
2022-09-06T08:23:24.562Z,63.84
2022-09-06T08:25:59.170Z,63.21
2022-09-06T08:28:28.960Z,62.38
2022-09-06T08:30:57.242Z,62.24
2022-09-06T08:33:25.719Z,61.37
2022-09-06T08:35:57.506Z,61.69
2022-09-06T08:38:26.674Z,60.70
2022-09-06T08:40:56.381Z,61.37
2022-09-06T08:43:24.328Z,61.26
2022-09-06T08:45:57.364Z,60.94
2022-09-06T08:48:28.550Z,59.21
2022-09-06T08:51:11.893Z,59.75
2022-09-06T08:53:46.467Z,58.47
2022-09-06T08:56:17.915Z,58.75
2022-09-06T08:58:59.778Z,58.73
2022-09-06T09:01:35.671Z,58.21
2022-09-06T09:04:07.304Z,58.32
2022-09-06T09:06:36.272Z,57.13
2022-09-06T09:09:07.864Z,57.15
2022-09-06T09:11:37.955Z,56.21
2022-09-06T09:14:07.312Z,55.90
2022-09-06T09:16:35.452Z,54.82
2022-09-06T09:19:06.056Z,54.57
2022-09-06T09:21:37.503Z,54.26
2022-09-06T09:24:09.645Z,54.15
2022-09-06T09:26:48.905Z,53.39
2022-09-06T09:29:17.281Z,52.23
2022-09-06T09:31:53.762Z,53.06
2022-09-06T09:34:33.291Z,52.97
2022-09-06T09:40:14.095Z,51.99
2022-09-06T09:42:42.042Z,52.69
2022-09-06T09:45:26.527Z,51.45
2022-09-06T09:47:54.846Z,50.12
2022-09-06T09:50:27.365Z,48.89
2022-09-06T09:52:55.653Z,48.62
2022-09-06T09:55:27.123Z,49.00
2022-09-06T09:57:56.279Z,49.00
2022-09-06T10:00:36.319Z,48.14
2022-09-06T10:03:13.199Z,48.14
2022-09-06T10:05:42.697Z,47.41
2022-09-06T10:08:13.374Z,48.17
2022-09-06T10:10:47.469Z,48.30
2022-09-06T10:13:21.013Z,48.07
2022-09-06T10:15:49.943Z,47.50
2022-09-06T10:18:29.706Z,47.92
2022-09-06T10:21:01.729Z,47.64
2022-09-06T10:26:39.795Z,47.74
2022-09-06T10:29:10.340Z,47.53
2022-09-06T10:31:57.239Z,47.22
2022-09-06T10:34:46.943Z,46.10
2022-09-06T10:37:26.252Z,46.95
2022-09-06T10:39:59.019Z,47.05
2022-09-06T10:42:36.750Z,46.56
2022-09-06T10:45:18.094Z,46.87
2022-09-06T10:47:57.617Z,46.60
2022-09-06T10:50:34.617Z,47.61
2022-09-06T10:53:10.659Z,48.07
2022-09-06T10:55:43.557Z,49.17
2022-09-06T10:58:19.222Z,48.66
2022-09-06T11:00:50.720Z,48.35
2022-09-06T11:06:17.261Z,47.63
2022-09-06T11:08:53.462Z,48.62
2022-09-06T11:11:35.467Z,47.96
2022-09-06T11:14:10.560Z,48.61
2022-09-06T11:16:46.791Z,47.50
2022-09-06T11:19:21.598Z,47.84
2022-09-06T11:22:34.012Z,46.42
2022-09-06T11:25:32.371Z,45.98
2022-09-06T11:28:03.961Z,45.21
2022-09-06T11:30:33.267Z,45.67
2022-09-06T11:33:14.218Z,46.02
2022-09-06T11:35:44.993Z,45.64
2022-09-06T11:38:24.285Z,45.33
2022-09-06T11:40:58.905Z,46.15
2022-09-06T11:43:46.149Z,44.76
2022-09-06T11:46:48.456Z,45.47
2022-09-06T11:49:35.276Z,44.53
2022-09-06T11:52:03.673Z,44.49
2022-09-06T11:54:43.752Z,44.38
2022-09-06T11:57:16.570Z,45.78
2022-09-06T11:59:54.818Z,45.38
2022-09-06T12:02:37.850Z,45.04
2022-09-06T12:05:19.433Z,45.26
2022-09-06T12:08:26.757Z,45.16
2022-09-06T12:11:23.027Z,44.82
2022-09-06T12:14:04.052Z,43.55
2022-09-06T12:17:19.992Z,43.51
2022-09-06T12:19:49.665Z,43.42
2022-09-06T12:23:04.076Z,43.14
2022-09-06T12:25:57.455Z,42.66
2022-09-06T12:28:41.112Z,43.12
2022-09-06T12:31:31.845Z,43.86
2022-09-06T12:34:00.215Z,44.89
2022-09-06T12:36:32.096Z,43.73
2022-09-06T12:39:01.796Z,42.96
2022-09-06T12:41:42.953Z,42.09
2022-09-06T12:44:12.023Z,41.59
2022-09-06T12:46:46.428Z,42.57
2022-09-06T12:49:22.349Z,43.38
2022-09-06T12:51:50.451Z,41.83
2022-09-06T12:54:21.818Z,41.81
2022-09-06T12:56:51.812Z,41.40
2022-09-06T12:59:22.036Z,42.37
2022-09-06T13:01:58.911Z,41.39
2022-09-06T13:04:39.964Z,42.23
2022-09-06T13:07:13.024Z,41.69
2022-09-06T13:09:46.879Z,41.94
2022-09-06T13:12:24.846Z,40.86
2022-09-06T13:14:54.658Z,40.70
2022-09-06T13:17:26.353Z,42.02
2022-09-06T13:19:54.616Z,42.11
2022-09-06T13:22:41.688Z,43.07
2022-09-06T13:25:24.265Z,42.71
2022-09-06T13:27:57.717Z,42.27
2022-09-06T13:30:58.332Z,41.84
2022-09-06T13:33:27.579Z,42.67
2022-09-06T13:36:16.819Z,42.48
2022-09-06T13:38:46.073Z,42.36
2022-09-06T13:41:38.002Z,42.62
2022-09-06T13:44:17.687Z,40.66
2022-09-06T13:46:45.702Z,40.66
2022-09-06T13:49:22.489Z,39.24
2022-09-06T13:51:50.759Z,39.18
2022-09-06T13:54:18.613Z,39.64
2022-09-06T14:09:16.565Z,39.64
2022-09-06T14:11:48.222Z,39.51
2022-09-06T14:14:17.556Z,40.44
2022-09-06T14:19:57.147Z,38.83
2022-09-06T14:22:25.542Z,38.43
2022-09-06T14:24:55.229Z,38.62
2022-09-06T14:27:48.944Z,38.05
2022-09-06T14:30:17.255Z,39.87
2022-09-06T14:32:45.966Z,39.76
2022-09-06T14:35:13.759Z,39.29
2022-09-06T14:37:43.021Z,38.43
2022-09-06T14:40:12.399Z,39.63
2022-09-06T14:58:40.758Z,38.46
2022-09-06T15:23:32.257Z,39.66
2022-09-06T15:42:14.601Z,41.69
2022-09-06T16:04:31.574Z,43.77
2022-09-06T16:07:00.707Z,45.64
2022-09-06T16:15:12.352Z,46.29
2022-09-06T16:17:40.267Z,47.10
2022-09-06T16:20:08.572Z,47.42
2022-09-06T16:22:38.017Z,47.48
2022-09-06T16:25:11.602Z,48.04
2022-09-06T16:30:42.385Z,47.90
2022-09-06T16:33:10.352Z,47.93
2022-09-06T16:35:40.302Z,48.05
2022-09-06T16:38:10.503Z,48.74
2022-09-06T16:40:38.353Z,48.58
2022-09-06T16:43:06.363Z,47.50
2022-09-06T16:45:34.192Z,47.74
2022-09-06T16:48:01.994Z,47.44
2022-09-06T16:50:29.897Z,47.11
2022-09-06T16:53:01.438Z,47.63
2022-09-06T16:55:32.836Z,47.71
2022-09-06T16:58:00.600Z,47.99
2022-09-06T17:00:28.565Z,46.97
2022-09-06T17:02:56.731Z,47.94
2022-09-06T17:05:24.617Z,48.35
2022-09-06T17:07:52.588Z,47.27
2022-09-06T17:10:20.377Z,46.70
2022-09-06T17:12:49.568Z,46.75
2022-09-06T17:15:17.520Z,46.01
2022-09-06T17:17:45.159Z,46.39
2022-09-06T17:20:12.972Z,46.37
2022-09-06T17:22:40.788Z,47.28
2022-09-06T17:25:08.846Z,47.34
2022-09-06T17:27:36.624Z,47.11
2022-09-06T17:30:06.632Z,47.38
2022-09-06T17:32:36.536Z,48.27
2022-09-06T17:35:04.796Z,48.76
2022-09-06T17:37:33.524Z,49.15
2022-09-06T17:40:01.600Z,49.17
2022-09-06T17:42:30.572Z,49.95
2022-09-06T17:44:58.422Z,50.74
2022-09-06T17:47:28.111Z,50.72
2022-09-06T17:49:55.867Z,50.50
2022-09-06T17:52:23.667Z,50.49
2022-09-06T17:54:51.415Z,50.92
2022-09-06T17:57:19.200Z,50.83
2022-09-06T17:59:47.323Z,50.45
2022-09-06T18:02:15.121Z,50.98
2022-09-06T18:04:44.462Z,50.43
2022-09-06T18:07:12.314Z,51.09
2022-09-06T18:09:41.565Z,51.21
2022-09-06T18:12:09.486Z,51.32
2022-09-06T18:14:37.565Z,52.70
2022-09-06T18:17:05.519Z,52.32
2022-09-06T18:19:33.362Z,52.54
2022-09-06T18:22:02.555Z,53.20
2022-09-06T18:24:30.417Z,53.25
2022-09-06T18:26:58.172Z,54.60
2022-09-06T18:29:25.964Z,54.21
2022-09-06T18:31:54.443Z,54.64
2022-09-06T18:34:22.591Z,55.00
2022-09-06T18:36:50.473Z,55.19
2022-09-06T18:39:20.766Z,55.30
2022-09-06T18:42:01.097Z,55.89
2022-09-06T18:44:32.294Z,57.39
2022-09-06T18:47:02.074Z,55.96
2022-09-06T18:49:31.016Z,55.99
2022-09-06T18:51:59.567Z,57.18
2022-09-06T18:54:28.903Z,57.36
2022-09-06T18:56:56.743Z,57.28
2022-09-06T18:59:24.545Z,58.00
2022-09-06T19:01:52.434Z,58.26
2022-09-06T19:04:20.339Z,59.81
2022-09-06T19:06:48.782Z,60.77
2022-09-06T19:09:18.463Z,61.13
2022-09-06T19:11:51.650Z,62.17
2022-09-06T19:14:20.388Z,62.52
2022-09-06T19:16:50.294Z,62.38
2022-09-06T19:19:18.415Z,62.01
2022-09-06T19:21:46.261Z,64.87
2022-09-06T19:24:15.651Z,63.16
2022-09-06T19:26:45.094Z,62.19
2022-09-06T19:29:16.243Z,61.83
2022-09-06T19:31:45.020Z,62.41
2022-09-06T19:34:15.531Z,62.55
2022-09-06T19:36:44.528Z,62.56
2022-09-06T19:39:17.403Z,63.20
2022-09-06T19:41:47.394Z,62.50
2022-09-06T19:44:18.468Z,62.57
2022-09-06T19:46:47.409Z,63.01
2022-09-06T19:49:16.841Z,63.72
2022-09-06T19:51:46.435Z,64.05
2022-09-06T19:54:15.585Z,66.73
2022-09-06T19:56:44.972Z,66.07
2022-09-06T19:59:13.970Z,65.76
2022-09-06T20:01:45.426Z,66.02
2022-09-06T20:04:14.458Z,66.32
2022-09-06T20:06:42.872Z,65.90
2022-09-06T20:09:11.982Z,67.60
2022-09-06T20:11:41.310Z,66.82
2022-09-06T20:14:10.416Z,66.92
2022-09-06T20:16:41.697Z,66.73
2022-09-06T20:19:13.040Z,67.72
2022-09-06T20:21:40.994Z,67.30
2022-09-06T20:24:09.364Z,68.83
2022-09-06T20:26:37.783Z,68.75
2022-09-06T20:29:06.617Z,69.95
2022-09-06T20:31:35.089Z,71.58
2022-09-06T20:34:04.282Z,71.34
2022-09-06T20:36:33.766Z,71.67
2022-09-06T20:39:02.064Z,72.33
2022-09-06T20:41:30.137Z,72.60
2022-09-06T20:43:59.495Z,72.40
2022-09-06T20:46:29.076Z,70.91
2022-09-06T20:48:58.257Z,71.27
2022-09-06T20:51:26.566Z,72.14
2022-09-06T20:53:58.572Z,71.79
2022-09-06T20:56:29.383Z,72.03
2022-09-06T20:58:59.488Z,72.68
2022-09-06T21:01:29.129Z,73.28
2022-09-06T21:03:59.347Z,71.73
2022-09-06T21:06:28.994Z,71.68
2022-09-06T21:08:58.623Z,71.73
2022-09-06T21:11:26.952Z,71.76
2022-09-06T21:13:56.789Z,71.58
2022-09-06T21:16:26.360Z,71.20
2022-09-06T21:18:55.576Z,71.44
2022-09-06T21:21:23.569Z,71.70
2022-09-06T21:23:51.362Z,71.85
2022-09-06T21:26:21.743Z,71.64
2022-09-06T21:28:50.257Z,71.87
2022-09-06T21:31:21.880Z,72.60
2022-09-06T21:33:52.587Z,72.42
2022-09-06T21:36:22.394Z,72.69
2022-09-06T21:38:53.420Z,74.61
2022-09-06T21:41:23.596Z,74.68
2022-09-06T21:43:53.776Z,73.34
2022-09-06T21:46:22.891Z,72.97
2022-09-06T21:48:52.734Z,74.51
2022-09-06T21:51:22.598Z,74.47
2022-09-06T21:53:52.477Z,75.43
2022-09-06T21:56:23.772Z,75.08
2022-09-06T21:58:52.495Z,74.05
2022-09-06T22:01:20.484Z,74.61
2022-09-06T22:03:48.532Z,74.54
2022-09-06T22:06:18.258Z,74.80
2022-09-06T22:08:46.330Z,75.87
2022-09-06T22:11:16.307Z,76.20
2022-09-06T22:13:46.814Z,77.82
2022-09-06T22:16:15.439Z,76.25
2022-09-06T22:18:44.884Z,75.75
2022-09-06T22:21:18.447Z,75.37
2022-09-06T22:23:51.130Z,75.64
2022-09-06T22:26:19.736Z,75.40
2022-09-06T22:28:49.301Z,77.77
2022-09-06T22:31:17.075Z,78.85
2022-09-06T22:33:44.935Z,80.25
2022-09-06T22:36:12.764Z,81.10
2022-09-06T22:38:40.590Z,79.10
2022-09-06T22:41:09.335Z,80.70
2022-09-06T22:43:37.167Z,80.02
2022-09-06T22:46:08.143Z,80.46
2022-09-06T22:48:36.866Z,79.76
2022-09-06T22:51:06.234Z,78.90
2022-09-06T22:53:34.988Z,79.63
2022-09-06T22:56:03.664Z,80.24
2022-09-06T22:58:31.947Z,80.49
2022-09-06T23:01:08.910Z,81.25
2022-09-06T23:03:37.790Z,80.88
2022-09-06T23:06:06.254Z,79.69
2022-09-06T23:08:35.433Z,82.04
2022-09-06T23:11:06.186Z,81.88
2022-09-06T23:13:34.198Z,80.83
2022-09-06T23:16:08.333Z,81.76
2022-09-06T23:18:36.182Z,81.76
2022-09-06T23:21:06.076Z,82.68
2022-09-06T23:23:33.901Z,82.28
2022-09-06T23:26:06.258Z,81.07
2022-09-06T23:28:34.132Z,80.03
2022-09-06T23:31:07.595Z,80.62
2022-09-06T23:33:36.245Z,81.11
2022-09-06T23:36:04.836Z,81.53
2022-09-06T23:38:33.682Z,80.98
2022-09-06T23:41:02.127Z,82.02
2022-09-06T23:43:30.329Z,81.22
2022-09-06T23:45:58.508Z,80.81
2022-09-06T23:48:27.760Z,80.61
2022-09-06T23:50:55.604Z,81.62
2022-09-06T23:53:23.906Z,83.83
2022-09-06T23:55:51.752Z,84.81
2022-09-06T23:58:19.641Z,83.74
